createdAt,value
2019-02-22T00:00:27.362Z,67.53
2019-02-22T00:02:57.857Z,64.97
2019-02-22T00:05:28.498Z,54.03
2019-02-22T00:07:58.935Z,64.07
2019-02-22T00:10:30.886Z,69.47
2019-02-22T00:13:01.609Z,57.13
2019-02-22T00:15:36.220Z,59.70
2019-02-22T00:18:06.895Z,60.40
2019-02-22T00:20:37.903Z,44.50
2019-02-22T00:23:12.167Z,53.17
2019-02-22T00:25:42.859Z,49.17
2019-02-22T00:28:13.474Z,46.37
2019-02-22T00:30:44.205Z,52.63
2019-02-22T00:33:15.456Z,56.57
2019-02-22T00:35:46.427Z,46.57
2019-02-22T00:38:16.915Z,52.33
2019-02-22T00:40:47.442Z,45.27
2019-02-22T00:43:18.087Z,41.63
2019-02-22T00:45:56.555Z,44.27
2019-02-22T00:48:27.118Z,47.67
2019-02-22T00:50:58.108Z,46.60
2019-02-22T00:53:29.547Z,53.40
2019-02-22T00:56:00.986Z,53.27
2019-02-22T00:58:31.605Z,38.27
2019-02-22T01:01:02.981Z,45.53
2019-02-22T01:03:33.905Z,41.77
2019-02-22T01:06:04.838Z,35.33
2019-02-22T01:08:35.465Z,32.30
2019-02-22T01:11:06.706Z,29.63
2019-02-22T01:13:37.423Z,33.90
2019-02-22T01:16:08.783Z,44.67
2019-02-22T01:18:41.473Z,37.77
2019-02-22T01:21:11.787Z,35.67
2019-02-22T01:23:42.717Z,30.17
2019-02-22T01:26:13.365Z,32.33
2019-02-22T01:28:44.927Z,31.27
2019-02-22T01:31:15.435Z,33.77
2019-02-22T01:33:45.859Z,28.93
2019-02-22T01:36:16.277Z,27.63
2019-02-22T01:38:46.826Z,28.67
2019-02-22T01:41:19.805Z,32.60
2019-02-22T01:43:50.736Z,24.87
2019-02-22T01:46:21.267Z,28.07
2019-02-22T01:48:51.484Z,24.17
2019-02-22T01:51:21.927Z,24.40
2019-02-22T01:53:53.955Z,26.33
2019-02-22T01:56:24.816Z,20.20
2019-02-22T01:58:55.329Z,22.73
2019-02-22T02:01:25.553Z,17.97
2019-02-22T02:03:55.676Z,14.87
2019-02-22T02:06:26.510Z,16.77
2019-02-22T02:08:56.942Z,14.90
2019-02-22T02:11:35.451Z,14.83
2019-02-22T02:14:06.796Z,14.83
2019-02-22T02:16:38.877Z,14.63
2019-02-22T02:19:09.191Z,15.63
2019-02-22T02:21:50.774Z,13.70
2019-02-22T02:24:24.477Z,16.23
2019-02-22T02:26:58.906Z,17.10
2019-02-22T02:29:29.547Z,15.40
2019-02-22T02:32:06.828Z,15.07
2019-02-22T02:34:37.458Z,11.90
2019-02-22T02:37:08.828Z,9.50
2019-02-22T02:45:30.457Z,4.60
2019-02-22T02:48:00.997Z,5.00
2019-02-22T02:50:31.611Z,5.53
2019-02-22T02:53:02.056Z,6.80
2019-02-22T02:55:33.517Z,5.73
2019-02-22T02:58:03.712Z,6.57
2019-02-22T03:00:33.931Z,6.17
2019-02-22T03:09:05.863Z,8.43
2019-02-22T03:11:39.752Z,9.73
2019-02-22T03:14:10.086Z,9.03
2019-02-22T03:16:40.697Z,7.60
2019-02-22T03:19:11.425Z,8.43
2019-02-22T03:21:43.111Z,8.73
2019-02-22T03:24:13.833Z,6.90
2019-02-22T03:26:44.265Z,7.00
2019-02-22T03:29:15.482Z,5.63
2019-02-22T03:31:46.114Z,6.50
2019-02-22T03:34:16.753Z,7.00
2019-02-22T03:36:47.396Z,6.03
2019-02-22T03:39:17.826Z,7.63
2019-02-22T03:41:48.049Z,8.17
2019-02-22T03:44:18.554Z,8.40
2019-02-22T03:46:49.403Z,7.87
2019-02-22T03:49:20.026Z,7.30
2019-02-22T03:51:50.546Z,8.33
2019-02-22T03:54:20.986Z,7.73
2019-02-22T03:56:55.518Z,9.00
2019-02-22T03:59:26.876Z,10.97
2019-02-22T04:02:01.888Z,8.20
2019-02-22T04:04:35.115Z,9.87
2019-02-22T04:07:08.478Z,10.30
2019-02-22T04:16:18.192Z,13.03
2019-02-22T04:26:59.599Z,12.63
2019-02-22T04:29:29.005Z,9.50
2019-02-22T04:35:12.239Z,10.03
2019-02-22T04:40:53.226Z,9.37
2019-02-22T04:48:58.828Z,13.07
2019-02-22T04:51:29.238Z,12.53
2019-02-22T04:53:59.872Z,13.00
2019-02-22T04:56:30.420Z,12.03
2019-02-22T04:59:01.639Z,14.93
2019-02-22T05:01:31.655Z,12.53
2019-02-22T05:04:02.594Z,15.23
2019-02-22T05:06:32.830Z,14.60
2019-02-22T05:09:03.139Z,16.43
2019-02-22T05:11:33.459Z,14.50
2019-02-22T05:14:03.909Z,14.83
2019-02-22T05:16:35.036Z,14.63
2019-02-22T05:19:08.529Z,13.00
2019-02-22T05:21:38.867Z,18.77
2019-02-22T05:24:08.766Z,15.77
2019-02-22T05:26:39.397Z,18.20
2019-02-22T05:29:10.354Z,15.17
2019-02-22T05:31:40.758Z,15.30
2019-02-22T05:34:11.191Z,17.90
2019-02-22T05:36:44.133Z,18.53
2019-02-22T05:39:19.021Z,18.60
2019-02-22T05:41:45.443Z,21.07
2019-02-22T05:44:16.296Z,19.13
2019-02-22T05:46:46.802Z,20.30
2019-02-22T05:49:17.770Z,17.30
2019-02-22T05:51:47.763Z,18.87
2019-02-22T05:54:18.828Z,17.07
2019-02-22T05:56:49.337Z,14.13
2019-02-22T05:59:19.886Z,15.07
2019-02-22T06:01:50.597Z,13.80
2019-02-22T06:04:21.419Z,20.00
2019-02-22T06:06:52.796Z,16.20
2019-02-22T06:09:23.504Z,15.17
2019-02-22T06:11:54.457Z,14.00
2019-02-22T06:14:24.763Z,16.67
2019-02-22T06:16:55.428Z,15.37
2019-02-22T06:19:25.846Z,17.57
2019-02-22T06:21:56.478Z,14.17
2019-02-22T06:24:26.678Z,17.00
2019-02-22T06:26:57.436Z,14.07
2019-02-22T06:29:28.342Z,11.20
2019-02-22T06:32:00.327Z,10.97
2019-02-22T06:34:31.127Z,14.90
2019-02-22T06:37:02.412Z,10.97
2019-02-22T06:39:32.716Z,11.90
2019-02-22T06:42:03.266Z,16.73
2019-02-22T06:44:33.467Z,14.17
2019-02-22T06:47:04.007Z,15.00
2019-02-22T06:49:34.639Z,10.50
2019-02-22T06:52:05.480Z,9.57
2019-02-22T06:54:35.789Z,10.83
2019-02-22T06:57:06.330Z,11.17
2019-02-22T06:59:36.848Z,11.00
2019-02-22T07:02:07.158Z,11.43
2019-02-22T07:04:37.492Z,10.80
2019-02-22T07:07:07.710Z,14.37
2019-02-22T07:09:37.948Z,12.40
2019-02-22T07:12:17.689Z,12.97
2019-02-22T07:14:47.810Z,14.23
2019-02-22T07:17:20.880Z,9.07
2019-02-22T07:19:51.410Z,10.63
2019-02-22T07:22:22.660Z,14.43
2019-02-22T07:24:52.669Z,12.87
2019-02-22T07:27:22.789Z,15.67
2019-02-22T07:29:53.028Z,12.73
2019-02-22T07:32:26.917Z,10.33
2019-02-22T07:34:57.652Z,13.17
2019-02-22T07:37:27.792Z,10.63
2019-02-22T07:39:57.792Z,14.27
2019-02-22T07:42:28.421Z,12.77
2019-02-22T07:44:59.784Z,12.07
2019-02-22T07:47:35.629Z,8.90
2019-02-22T07:50:14.244Z,12.87
2019-02-22T07:52:45.310Z,10.40
2019-02-22T07:55:16.013Z,9.60
2019-02-22T07:57:46.651Z,12.67
2019-02-22T08:00:16.869Z,11.77
2019-02-22T08:02:47.901Z,12.33
2019-02-22T08:05:18.429Z,17.20
2019-02-22T08:07:48.990Z,13.50
2019-02-22T08:10:20.104Z,13.20
2019-02-22T08:12:50.853Z,15.77
2019-02-22T08:15:21.469Z,52.87
2019-02-22T08:17:52.200Z,37.63
2019-02-22T08:20:22.724Z,20.63
2019-02-22T08:22:53.588Z,29.97
2019-02-22T08:25:24.499Z,47.47
2019-02-22T08:27:54.629Z,37.17
2019-02-22T08:30:24.649Z,44.60
2019-02-22T08:32:55.474Z,17.17
2019-02-22T08:35:25.794Z,23.07
2019-02-22T08:37:56.424Z,18.87
2019-02-22T08:40:26.850Z,17.17
2019-02-22T08:54:46.665Z,20.07
2019-02-22T08:57:13.038Z,14.17
2019-02-22T08:59:43.368Z,18.93
2019-02-22T09:02:13.163Z,17.13
2019-02-22T09:04:43.411Z,23.97
2019-02-22T09:07:13.590Z,25.20
2019-02-22T09:09:43.631Z,12.33
2019-02-22T09:12:13.559Z,38.67
2019-02-22T09:14:43.668Z,14.47
2019-02-22T09:17:13.774Z,25.57
2019-02-22T09:19:44.328Z,31.50
2019-02-22T09:22:22.497Z,24.77
2019-02-22T09:24:47.094Z,24.30
2019-02-22T09:27:17.459Z,22.20
2019-02-22T09:29:58.180Z,18.40
2019-02-22T09:32:18.900Z,11.80
2019-02-22T09:34:48.820Z,15.30
2019-02-22T09:37:18.852Z,29.40
2019-02-22T09:39:49.047Z,12.80
2019-02-22T09:42:19.392Z,24.30
2019-02-22T09:44:49.612Z,15.80
2019-02-22T09:47:22.700Z,19.53
2019-02-22T09:49:52.811Z,15.47
2019-02-22T09:52:22.951Z,10.60
2019-02-22T09:54:53.859Z,14.27
2019-02-22T09:57:22.449Z,11.33
2019-02-22T09:59:52.362Z,18.33
2019-02-22T10:04:55.098Z,28.57
2019-02-22T10:07:23.351Z,17.13
2019-02-22T10:09:53.669Z,6.40
2019-02-22T10:12:23.470Z,15.13
2019-02-22T10:14:53.479Z,7.30
2019-02-22T10:17:23.509Z,9.57
2019-02-22T10:19:53.629Z,13.10
2019-02-22T10:22:23.740Z,8.33
2019-02-22T10:24:54.368Z,6.20
2019-02-22T10:27:23.669Z,5.53
2019-02-22T10:29:54.119Z,6.07
2019-02-22T10:32:23.090Z,7.20
2019-02-22T10:34:52.899Z,4.70
2019-02-22T10:39:51.905Z,7.53
2019-02-22T10:42:21.929Z,6.37
2019-02-22T10:44:52.147Z,5.67
2019-02-22T10:47:22.161Z,9.73
2019-02-22T10:49:52.287Z,6.70
2019-02-22T10:52:22.125Z,5.40
2019-02-22T10:54:52.619Z,7.30
2019-02-22T10:57:22.635Z,18.67
2019-02-22T10:59:52.756Z,54.57
2019-02-22T11:02:22.669Z,12.50
2019-02-22T11:04:52.687Z,12.47
2019-02-22T11:07:22.919Z,44.07
2019-02-22T11:09:53.248Z,40.07
2019-02-22T11:14:52.238Z,20.70
2019-02-22T11:17:22.271Z,6.33
2019-02-22T11:19:52.269Z,9.97
2019-02-22T11:22:22.298Z,18.70
2019-02-22T11:24:52.210Z,18.37
2019-02-22T11:27:22.133Z,20.60
2019-02-22T11:29:52.350Z,15.13
2019-02-22T11:32:22.058Z,13.23
2019-02-22T11:34:52.108Z,16.00
2019-02-22T11:37:22.488Z,19.83
2019-02-22T11:39:52.408Z,5.40
2019-02-22T11:42:22.218Z,8.47
2019-02-22T11:44:52.352Z,10.97
2019-02-22T11:47:22.457Z,11.03
2019-02-22T11:49:52.674Z,11.37
2019-02-22T11:52:23.001Z,9.13
2019-02-22T11:54:53.543Z,20.40
2019-02-22T11:57:23.760Z,14.77
2019-02-22T11:59:53.662Z,14.20
2019-02-22T12:02:23.472Z,8.40
2019-02-22T12:04:53.501Z,7.87
2019-02-22T12:07:23.509Z,6.77
2019-02-22T12:09:53.629Z,13.97
2019-02-22T12:12:23.549Z,8.57
2019-02-22T12:14:53.973Z,15.03
2019-02-22T12:17:25.284Z,5.57
2019-02-22T12:22:23.910Z,14.00
2019-02-22T12:24:54.752Z,15.60
2019-02-22T12:27:25.128Z,12.43
2019-02-22T12:39:55.354Z,14.23
2019-02-22T12:45:02.543Z,7.93
2019-02-22T12:47:25.832Z,9.73
2019-02-22T12:52:25.538Z,8.07
2019-02-22T12:57:24.872Z,7.00
2019-02-22T12:59:55.498Z,15.73
2019-02-22T13:04:54.832Z,13.07
2019-02-22T13:09:55.872Z,7.83
2019-02-22T13:12:26.512Z,12.07
2019-02-22T13:14:57.233Z,9.43
2019-02-22T13:17:30.830Z,16.50
2019-02-22T13:19:59.512Z,12.43
2019-02-22T13:22:30.872Z,18.93
2019-02-22T13:25:01.093Z,19.10
2019-02-22T13:27:31.536Z,31.87
2019-02-22T13:30:01.429Z,18.33
2019-02-22T13:32:31.751Z,7.20
2019-02-22T13:35:01.784Z,9.73
2019-02-22T13:37:31.690Z,19.27
2019-02-22T13:40:01.505Z,43.60
2019-02-22T13:42:32.035Z,11.07
2019-02-22T13:45:02.264Z,21.43
2019-02-22T13:47:32.672Z,17.60
2019-02-22T13:50:02.982Z,17.63
2019-02-22T13:52:33.103Z,7.83
2019-02-22T13:55:03.425Z,16.77
2019-02-22T13:57:33.760Z,9.50
2019-02-22T14:00:05.420Z,11.77
2019-02-22T14:02:35.939Z,11.07
2019-02-22T14:05:06.688Z,15.63
2019-02-22T14:07:36.688Z,12.20
2019-02-22T14:10:06.820Z,12.77
2019-02-22T14:12:36.947Z,8.90
2019-02-22T14:15:10.328Z,11.83
2019-02-22T14:17:40.554Z,8.23
2019-02-22T14:20:10.785Z,14.23
2019-02-22T14:22:41.530Z,11.97
2019-02-22T14:25:12.346Z,14.43
2019-02-22T14:30:11.872Z,11.00
2019-02-22T14:32:44.953Z,16.80
2019-02-22T14:37:43.355Z,10.50
2019-02-22T14:40:13.352Z,16.87
2019-02-22T14:42:43.496Z,17.77
2019-02-22T14:45:14.202Z,10.87
2019-02-22T14:50:17.100Z,15.33
2019-02-22T14:52:47.436Z,11.40
2019-02-22T15:00:18.088Z,65.23
2019-02-22T15:05:18.019Z,144.80
2019-02-22T15:10:18.780Z,15.93
2019-02-22T15:12:48.113Z,74.87
2019-02-22T15:17:55.992Z,67.00
2019-02-22T15:20:25.808Z,28.57
2019-02-22T15:22:54.400Z,13.70
2019-02-22T15:25:24.916Z,19.30
2019-02-22T15:35:18.866Z,37.13
2019-02-22T15:37:47.632Z,42.33
2019-02-22T15:40:17.865Z,25.47
2019-02-22T15:45:16.666Z,46.97
2019-02-22T15:47:48.759Z,57.63
2019-02-22T15:50:19.455Z,48.00
2019-02-22T15:52:48.219Z,40.50
2019-02-22T15:55:18.268Z,15.17
2019-02-22T16:00:19.928Z,31.23
2019-02-22T16:02:48.833Z,57.97
2019-02-22T16:05:28.376Z,37.30
2019-02-22T16:07:57.990Z,21.50
2019-02-22T16:10:29.112Z,59.73
2019-02-22T16:13:01.074Z,74.37
2019-02-22T16:15:32.824Z,27.37
2019-02-22T16:18:04.584Z,28.97
2019-02-22T16:20:34.899Z,11.90
2019-02-22T16:23:06.272Z,38.87
2019-02-22T16:25:48.054Z,41.07
2019-02-22T16:28:20.112Z,22.97
2019-02-22T16:33:22.112Z,19.77
2019-02-22T16:35:51.380Z,23.27
2019-02-22T16:43:21.440Z,128.47
2019-02-22T16:45:51.552Z,396.40
2019-02-22T16:53:20.593Z,123.20
2019-02-22T17:09:07.136Z,46.23
2019-02-22T17:11:37.808Z,291.53
2019-02-22T17:14:08.953Z,117.43
2019-02-22T17:16:45.741Z,67.37
2019-02-22T17:26:52.457Z,51.57
2019-02-22T17:29:24.146Z,36.80
2019-02-22T17:31:54.936Z,32.33
2019-02-22T17:34:25.264Z,64.20
2019-02-22T17:36:55.472Z,93.40
2019-02-22T17:39:30.112Z,51.43
2019-02-22T17:42:00.671Z,112.37
2019-02-22T17:44:31.272Z,32.90
2019-02-22T17:47:02.872Z,57.70
2019-02-22T17:49:33.993Z,71.80
2019-02-22T17:52:04.395Z,103.77
2019-02-22T17:54:35.344Z,63.50
2019-02-22T17:57:05.952Z,105.73
2019-02-22T17:59:36.791Z,120.97
2019-02-22T18:02:07.832Z,143.70
2019-02-22T18:04:39.912Z,43.00
2019-02-22T18:07:10.664Z,22.30
2019-02-22T18:09:42.154Z,44.73
2019-02-22T18:12:12.024Z,45.07
2019-02-22T18:14:43.035Z,29.70
2019-02-22T18:19:42.994Z,25.77
2019-02-22T18:22:12.584Z,37.43
2019-02-22T18:29:40.904Z,83.93
2019-02-22T18:32:11.515Z,52.03
2019-02-22T18:34:42.064Z,39.37
2019-02-22T18:39:42.033Z,60.70
2019-02-22T18:42:12.513Z,48.73
2019-02-22T18:49:42.065Z,53.60
2019-02-22T18:52:12.384Z,86.63
2019-02-22T18:57:11.904Z,47.80
2019-02-22T18:59:42.024Z,46.30
2019-02-22T19:04:41.432Z,43.60
2019-02-22T19:07:11.665Z,53.33
2019-02-22T19:09:42.145Z,170.83
2019-02-22T19:12:12.506Z,41.17
2019-02-22T19:17:11.824Z,34.43
2019-02-22T19:19:42.233Z,47.97
2019-02-22T19:24:41.465Z,88.90
2019-02-22T19:27:11.883Z,101.27
2019-02-22T19:29:42.143Z,35.50
2019-02-22T19:32:12.744Z,43.87
2019-02-22T19:34:43.475Z,59.63
2019-02-22T19:39:42.792Z,32.33
2019-02-22T19:42:13.112Z,37.07
2019-02-22T19:47:12.353Z,31.40
2019-02-22T19:49:43.144Z,32.47
2019-02-22T19:52:13.272Z,74.73
2019-02-22T19:54:44.912Z,97.60
2019-02-22T19:57:17.825Z,260.97
2019-02-22T20:07:12.784Z,146.13
2019-02-22T20:09:43.306Z,65.77
2019-02-22T20:12:13.912Z,53.70
2019-02-22T20:17:13.433Z,140.07
2019-02-22T20:22:13.384Z,66.80
2019-02-22T20:27:12.680Z,76.70
2019-02-22T20:29:42.903Z,71.30
2019-02-22T20:32:13.744Z,66.73
2019-02-22T20:37:13.373Z,30.23
2019-02-22T20:42:13.112Z,31.43
2019-02-22T20:47:13.314Z,31.60
2019-02-22T20:49:43.954Z,34.80
2019-02-22T20:52:14.904Z,35.03
2019-02-22T20:54:45.823Z,38.43
2019-02-22T20:57:16.465Z,34.57
2019-02-22T21:07:27.463Z,36.63
2019-02-22T21:09:58.714Z,23.87
2019-02-22T21:12:30.678Z,55.40
2019-02-22T21:15:09.601Z,42.83
2019-02-22T21:17:43.920Z,58.33
2019-02-22T21:23:00.044Z,42.53
2019-02-22T21:25:33.023Z,67.60
2019-02-22T21:28:07.113Z,73.53
2019-02-22T21:30:41.972Z,98.27
2019-02-22T21:33:17.933Z,216.90
2019-02-22T21:35:48.118Z,90.47
2019-02-22T21:45:46.867Z,116.93
2019-02-22T21:48:27.273Z,152.97
2019-02-22T21:50:49.885Z,109.77
2019-02-22T22:03:15.967Z,89.67
2019-02-22T22:05:46.690Z,56.77
2019-02-22T22:10:46.224Z,50.17
2019-02-22T22:13:16.867Z,34.40
2019-02-22T22:15:47.583Z,25.50
2019-02-22T22:18:18.416Z,31.47
2019-02-22T22:25:46.844Z,42.47
2019-02-22T22:28:17.477Z,30.90
2019-02-22T22:35:45.449Z,46.47
2019-02-22T22:38:15.793Z,61.57
2019-02-22T22:40:46.301Z,48.07
2019-02-22T22:43:16.528Z,66.53
2019-02-22T22:45:46.643Z,37.80
2019-02-22T22:48:16.456Z,56.53
2019-02-22T22:50:46.676Z,61.00
2019-02-22T22:53:16.692Z,51.67
2019-02-22T22:55:46.709Z,38.67
2019-02-22T22:58:17.546Z,29.63
2019-02-22T23:01:02.826Z,37.97
2019-02-22T23:03:32.735Z,33.50
2019-02-22T23:06:03.159Z,29.73
2019-02-22T23:08:33.181Z,37.03
2019-02-22T23:11:03.085Z,32.40
2019-02-22T23:13:33.105Z,46.27
2019-02-22T23:16:02.964Z,58.40
2019-02-22T23:18:33.142Z,43.43
2019-02-22T23:21:03.666Z,41.07
2019-02-22T23:23:33.684Z,34.53
2019-02-22T23:26:03.707Z,28.60
2019-02-22T23:28:33.717Z,30.43
2019-02-22T23:31:03.844Z,28.00
2019-02-22T23:33:34.270Z,32.33
2019-02-22T23:36:04.688Z,30.63
2019-02-22T23:38:34.808Z,34.83
2019-02-22T23:41:04.921Z,32.57
2019-02-22T23:43:35.139Z,27.50
2019-02-22T23:46:05.157Z,27.10
2019-02-22T23:48:35.172Z,24.83
2019-02-22T23:51:05.295Z,28.70
2019-02-22T23:53:35.824Z,28.03
2019-02-22T23:56:06.264Z,25.37
2019-02-22T23:58:36.680Z,30.17
